createdAt,value
2023-02-11T00:01:47.825Z,11.03
2023-02-11T00:04:14.415Z,11.02
2023-02-11T00:06:41.036Z,11.02
2023-02-11T00:09:07.785Z,11.01
2023-02-11T00:11:34.661Z,11.01
2023-02-11T00:14:02.302Z,11.00
2023-02-11T00:16:29.788Z,11.01
2023-02-11T00:18:56.384Z,11.07
2023-02-11T00:21:24.149Z,11.13
2023-02-11T00:23:50.870Z,11.21
2023-02-11T00:26:21.040Z,11.27
2023-02-11T00:28:47.851Z,11.33
2023-02-11T00:31:14.873Z,11.40
2023-02-11T00:33:41.630Z,11.46
2023-02-11T00:36:09.533Z,11.50
2023-02-11T00:38:36.339Z,11.53
2023-02-11T00:41:02.923Z,11.56
2023-02-11T00:43:29.525Z,11.56
2023-02-11T00:45:56.168Z,11.56
2023-02-11T00:48:22.822Z,11.53
2023-02-11T00:50:49.798Z,11.54
2023-02-11T00:53:16.562Z,11.56
2023-02-11T00:55:43.162Z,11.58
2023-02-11T00:58:09.794Z,11.55
2023-02-11T01:00:36.662Z,11.58
2023-02-11T01:03:03.286Z,11.60
2023-02-11T01:05:30.935Z,11.61
2023-02-11T01:07:57.996Z,11.63
2023-02-11T01:10:24.664Z,11.68
2023-02-11T01:12:51.205Z,11.68
2023-02-11T01:15:18.294Z,11.69
2023-02-11T01:17:44.894Z,11.69
2023-02-11T01:20:15.491Z,11.69
2023-02-11T01:22:42.163Z,11.68
2023-02-11T01:25:09.110Z,11.65
2023-02-11T01:27:37.242Z,11.66
2023-02-11T01:30:04.174Z,11.62
2023-02-11T01:32:30.719Z,11.59
2023-02-11T01:34:57.287Z,11.56
2023-02-11T01:37:24.063Z,11.51
2023-02-11T01:39:50.736Z,11.50
2023-02-11T01:42:17.881Z,11.51
2023-02-11T01:44:44.566Z,11.49
2023-02-11T01:47:11.196Z,11.43
2023-02-11T01:49:42.746Z,11.40
2023-02-11T01:52:13.598Z,11.39
2023-02-11T01:55:03.364Z,11.33
2023-02-11T01:57:30.695Z,11.26
2023-02-11T02:00:03.457Z,11.27
2023-02-11T02:02:35.122Z,11.28
2023-02-11T02:05:07.192Z,11.33
2023-02-11T02:07:35.184Z,11.35
2023-02-11T02:10:06.768Z,11.38
2023-02-11T02:12:33.314Z,11.38
2023-02-11T02:15:18.358Z,11.39
2023-02-11T02:17:47.137Z,11.38
2023-02-11T02:20:37.840Z,11.38
2023-02-11T02:23:04.385Z,11.37
2023-02-11T02:25:40.117Z,11.36
2023-02-11T02:28:09.569Z,11.34
2023-02-11T02:30:36.256Z,11.33
2023-02-11T02:33:21.625Z,11.30
2023-02-11T02:35:54.845Z,11.26
2023-02-11T02:38:24.026Z,11.25
2023-02-11T02:40:50.688Z,11.24
2023-02-11T02:43:17.499Z,11.23
2023-02-11T02:45:44.197Z,11.16
2023-02-11T02:48:29.616Z,11.08
2023-02-11T02:51:06.930Z,11.05
2023-02-11T02:53:40.116Z,11.02
2023-02-11T02:56:22.563Z,11.01
2023-02-11T02:58:59.731Z,11.01
2023-02-11T03:01:31.175Z,11.00
2023-02-11T03:04:03.764Z,11.01
2023-02-11T03:06:30.659Z,11.04
2023-02-11T03:08:59.030Z,11.06
2023-02-11T03:11:25.705Z,11.05
2023-02-11T03:13:52.400Z,11.05
2023-02-11T03:16:20.022Z,11.06
2023-02-11T03:18:48.688Z,11.04
2023-02-11T03:21:15.435Z,11.04
2023-02-11T03:23:53.197Z,11.03
2023-02-11T03:26:49.342Z,11.01
2023-02-11T03:29:23.738Z,11.02
2023-02-11T03:31:59.196Z,11.02
2023-02-11T03:34:25.824Z,11.00
2023-02-11T03:36:54.724Z,10.98
2023-02-11T03:39:23.630Z,10.96
2023-02-11T03:41:50.223Z,10.94
2023-02-11T03:44:16.802Z,10.93
2023-02-11T03:46:44.653Z,10.94
2023-02-11T03:49:12.190Z,10.95
2023-02-11T03:51:38.879Z,10.93
2023-02-11T03:54:06.546Z,10.91
2023-02-11T03:56:33.659Z,10.89
2023-02-11T03:59:00.227Z,10.87
2023-02-11T04:01:26.901Z,10.81
2023-02-11T04:03:53.484Z,10.78
2023-02-11T04:06:20.030Z,10.73
2023-02-11T04:08:46.769Z,10.73
2023-02-11T04:11:13.391Z,10.76
2023-02-11T04:13:40.036Z,10.76
2023-02-11T04:16:06.719Z,10.75
2023-02-11T04:18:33.330Z,10.77
2023-02-11T04:20:59.942Z,10.77
2023-02-11T04:23:26.686Z,10.76
2023-02-11T04:25:53.432Z,10.75
2023-02-11T04:28:20.145Z,10.73
2023-02-11T04:30:46.837Z,10.72
2023-02-11T04:33:13.423Z,10.70
2023-02-11T04:35:39.965Z,10.68
2023-02-11T04:38:06.668Z,10.71
2023-02-11T04:40:33.256Z,10.69
2023-02-11T04:42:59.870Z,10.67
2023-02-11T04:45:26.534Z,10.66
2023-02-11T04:47:53.100Z,10.67
2023-02-11T04:50:19.746Z,10.67
2023-02-11T04:52:46.349Z,10.64
2023-02-11T04:55:13.082Z,10.63
2023-02-11T04:57:39.759Z,10.64
2023-02-11T05:00:06.812Z,10.63
2023-02-11T05:02:33.412Z,10.63
2023-02-11T05:05:00.046Z,10.55
2023-02-11T05:07:26.805Z,10.48
2023-02-11T05:09:53.356Z,10.47
2023-02-11T05:12:19.919Z,10.46
2023-02-11T05:14:46.606Z,10.48
2023-02-11T05:17:13.275Z,10.47
2023-02-11T05:19:39.877Z,10.45
2023-02-11T05:22:06.498Z,10.43
2023-02-11T05:24:33.132Z,10.39
2023-02-11T05:26:59.960Z,10.34
2023-02-11T05:29:26.629Z,10.31
2023-02-11T05:31:53.453Z,10.28
2023-02-11T05:34:20.008Z,10.28
2023-02-11T05:36:46.765Z,10.28
2023-02-11T05:39:13.333Z,10.24
2023-02-11T05:41:39.968Z,10.18
2023-02-11T05:44:06.782Z,10.14
2023-02-11T05:46:33.380Z,10.09
2023-02-11T05:49:00.018Z,10.06
2023-02-11T05:51:26.963Z,10.01
2023-02-11T05:53:53.663Z,10.01
2023-02-11T05:56:20.394Z,10.00
2023-02-11T05:58:47.053Z,9.97
2023-02-11T06:01:13.763Z,9.98
2023-02-11T06:03:40.387Z,9.98
2023-02-11T06:06:10.223Z,9.99
2023-02-11T06:08:39.128Z,9.96
2023-02-11T06:11:05.931Z,9.96
2023-02-11T06:13:32.620Z,9.93
2023-02-11T06:15:59.469Z,9.92
2023-02-11T06:18:26.265Z,9.91
2023-02-11T06:20:52.944Z,9.88
2023-02-11T06:23:19.521Z,9.85
2023-02-11T06:25:46.143Z,9.85
2023-02-11T06:28:12.847Z,9.80
2023-02-11T06:30:39.424Z,9.74
2023-02-11T06:33:06.042Z,9.56
2023-02-11T06:35:33.762Z,9.66
2023-02-11T06:38:00.320Z,9.68
2023-02-11T06:40:26.894Z,9.68
2023-02-11T06:42:53.522Z,9.67
2023-02-11T06:45:20.716Z,9.67
2023-02-11T06:47:47.259Z,9.72
2023-02-11T06:50:14.208Z,9.73
2023-02-11T06:52:40.979Z,9.76
2023-02-11T06:55:07.704Z,9.75
2023-02-11T06:57:34.352Z,9.70
2023-02-11T07:00:00.947Z,9.67
2023-02-11T07:02:27.533Z,9.68
2023-02-11T07:04:54.194Z,9.68
2023-02-11T07:07:20.982Z,9.66
2023-02-11T07:09:47.616Z,9.64
2023-02-11T07:12:14.246Z,9.62
2023-02-11T07:14:40.834Z,9.63
2023-02-11T07:17:07.453Z,9.62
2023-02-11T07:19:34.216Z,9.62
2023-02-11T07:22:01.006Z,9.57
2023-02-11T07:24:27.713Z,9.55
2023-02-11T07:26:54.456Z,9.55
2023-02-11T07:29:21.515Z,9.54
2023-02-11T07:31:48.236Z,9.53
2023-02-11T07:34:15.007Z,9.52
2023-02-11T07:36:43.797Z,9.52
2023-02-11T07:39:10.467Z,9.52
2023-02-11T07:41:38.110Z,9.50
2023-02-11T07:44:04.877Z,9.49
2023-02-11T07:46:31.821Z,9.50
2023-02-11T07:48:58.651Z,9.51
2023-02-11T07:51:28.666Z,9.52
2023-02-11T07:53:55.706Z,9.54
2023-02-11T07:56:22.579Z,9.56
2023-02-11T07:58:49.313Z,9.60
2023-02-11T08:01:17.970Z,9.65
2023-02-11T08:03:44.815Z,9.76
2023-02-11T08:06:15.204Z,9.93
2023-02-11T08:08:42.058Z,10.08
2023-02-11T08:11:12.906Z,10.23
2023-02-11T08:13:39.496Z,10.38
2023-02-11T08:16:06.266Z,10.55
2023-02-11T08:18:33.053Z,10.68
2023-02-11T08:21:06.686Z,10.79
2023-02-11T08:23:33.485Z,10.89
2023-02-11T08:26:04.114Z,11.01
2023-02-11T08:28:30.765Z,11.14
2023-02-11T08:30:57.505Z,11.29
2023-02-11T08:33:24.113Z,11.42
2023-02-11T08:35:50.694Z,11.55
2023-02-11T08:38:17.421Z,11.63
2023-02-11T08:40:43.970Z,11.74
2023-02-11T08:43:10.608Z,11.80
2023-02-11T08:45:37.791Z,11.90
2023-02-11T08:48:04.559Z,12.06
2023-02-11T08:50:32.565Z,12.19
2023-02-11T08:52:59.274Z,12.36
2023-02-11T08:55:25.821Z,12.60
2023-02-11T08:57:52.586Z,12.74
2023-02-11T09:00:19.904Z,12.94
2023-02-11T09:02:46.478Z,13.20
2023-02-11T09:05:13.098Z,13.42
2023-02-11T09:07:39.870Z,13.68
2023-02-11T09:10:06.590Z,14.02
2023-02-11T09:12:33.241Z,14.16
2023-02-11T09:14:59.950Z,14.40
2023-02-11T09:17:26.627Z,14.56
2023-02-11T09:19:53.273Z,14.69
2023-02-11T09:22:20.019Z,14.75
2023-02-11T09:24:46.684Z,15.00
2023-02-11T09:27:13.242Z,15.09
2023-02-11T09:29:39.948Z,15.12
2023-02-11T09:32:09.661Z,15.31
2023-02-11T09:34:36.621Z,15.55
2023-02-11T09:37:03.361Z,15.81
2023-02-11T09:39:30.029Z,15.97
2023-02-11T09:42:15.694Z,16.05
2023-02-11T09:44:42.309Z,16.35
2023-02-11T09:47:27.856Z,16.66
2023-02-11T09:49:57.566Z,16.84
2023-02-11T09:52:27.308Z,17.09
2023-02-11T09:54:54.593Z,17.48
2023-02-11T09:57:28.648Z,17.81
2023-02-11T09:59:56.415Z,18.20
2023-02-11T10:02:28.957Z,18.59
2023-02-11T10:05:01.874Z,18.72
2023-02-11T10:07:33.876Z,18.80
2023-02-11T10:10:00.546Z,19.07
2023-02-11T10:12:36.582Z,19.30
2023-02-11T10:15:21.763Z,19.17
2023-02-11T10:17:51.609Z,18.92
2023-02-11T10:20:36.553Z,18.94
2023-02-11T10:23:09.341Z,18.93
2023-02-11T10:25:36.027Z,18.89
2023-02-11T10:28:10.542Z,18.90
2023-02-11T10:31:03.624Z,19.06
2023-02-11T10:33:34.889Z,19.10
2023-02-11T10:36:01.534Z,19.35
2023-02-11T10:38:28.165Z,19.58
2023-02-11T10:40:54.893Z,19.63
2023-02-11T10:43:22.898Z,19.87
2023-02-11T10:45:50.408Z,19.93
2023-02-11T10:48:35.834Z,20.02
2023-02-11T10:51:14.011Z,20.19
2023-02-11T10:53:41.264Z,20.34
2023-02-11T10:56:07.966Z,20.26
2023-02-11T10:58:34.630Z,20.06
2023-02-11T11:01:01.357Z,19.90
2023-02-11T11:03:29.291Z,19.74
2023-02-11T11:05:58.711Z,19.85
2023-02-11T11:08:45.386Z,20.10
2023-02-11T11:11:12.918Z,20.12
2023-02-11T11:13:40.453Z,20.04
2023-02-11T11:16:13.405Z,20.13
2023-02-11T11:18:40.467Z,20.06
2023-02-11T11:21:08.011Z,20.07
2023-02-11T11:23:37.881Z,19.94
2023-02-11T11:26:05.761Z,19.92
2023-02-11T11:28:39.971Z,20.07
2023-02-11T11:31:12.429Z,20.17
2023-02-11T11:33:40.807Z,20.27
2023-02-11T11:36:20.693Z,20.31
2023-02-11T11:38:55.807Z,20.43
2023-02-11T11:41:26.480Z,20.50
2023-02-11T11:44:11.904Z,20.76
2023-02-11T11:46:40.506Z,20.85
2023-02-11T11:49:16.259Z,21.13
2023-02-11T11:51:43.041Z,21.39
2023-02-11T11:54:12.368Z,21.49
2023-02-11T11:57:05.403Z,21.70
2023-02-11T11:59:31.968Z,21.79
2023-02-11T12:02:06.266Z,21.67
2023-02-11T12:04:40.845Z,21.83
2023-02-11T12:07:26.151Z,22.31
2023-02-11T12:09:58.815Z,22.44
2023-02-11T12:12:32.365Z,22.83
2023-02-11T12:15:02.082Z,23.47
2023-02-11T12:17:28.746Z,24.09
2023-02-11T12:20:06.200Z,24.39
2023-02-11T12:22:51.620Z,24.46
2023-02-11T12:25:31.840Z,24.53
2023-02-11T12:28:13.765Z,24.62
2023-02-11T12:30:43.538Z,24.88
2023-02-11T12:33:44.916Z,25.11
2023-02-11T12:36:24.273Z,25.51
2023-02-11T12:38:57.044Z,25.55
2023-02-11T12:42:04.336Z,25.63
2023-02-11T12:44:41.006Z,25.59
2023-02-11T12:47:07.686Z,25.79
2023-02-11T12:49:53.016Z,25.57
2023-02-11T12:52:23.086Z,25.45
2023-02-11T12:54:53.860Z,25.49
2023-02-11T12:57:20.709Z,25.26
2023-02-11T12:59:56.825Z,25.50
2023-02-11T13:02:29.438Z,25.55
2023-02-11T13:04:57.606Z,25.48
2023-02-11T13:07:35.210Z,25.36
2023-02-11T13:10:05.912Z,25.32
2023-02-11T13:12:51.036Z,25.14
2023-02-11T13:15:17.769Z,24.99
2023-02-11T13:17:47.525Z,25.32
2023-02-11T13:20:32.813Z,25.87
2023-02-11T13:23:11.857Z,26.34
2023-02-11T13:25:43.653Z,26.27
2023-02-11T13:28:13.421Z,26.49
2023-02-11T13:30:46.996Z,26.37
2023-02-11T13:33:16.791Z,26.41
2023-02-11T13:35:51.242Z,26.52
2023-02-11T13:38:18.930Z,25.64
2023-02-11T13:40:45.500Z,24.42
2023-02-11T13:43:25.122Z,23.24
2023-02-11T13:45:51.959Z,22.11
2023-02-11T13:48:25.659Z,21.20
2023-02-11T13:50:53.762Z,20.53
2023-02-11T13:53:20.478Z,20.02
2023-02-11T13:55:47.882Z,19.60
2023-02-11T13:58:14.524Z,19.23
2023-02-11T14:00:48.729Z,18.85
2023-02-11T14:04:00.572Z,18.54
2023-02-11T14:06:46.389Z,18.12
2023-02-11T14:09:12.911Z,17.90
2023-02-11T14:11:58.359Z,17.66
2023-02-11T14:14:25.951Z,17.46
2023-02-11T14:16:58.981Z,17.35
2023-02-11T14:19:32.273Z,17.28
2023-02-11T14:22:05.414Z,17.21
2023-02-11T14:24:35.213Z,17.14
2023-02-11T14:27:03.998Z,17.10
2023-02-11T14:29:37.064Z,17.06
2023-02-11T14:32:09.853Z,17.01
2023-02-11T14:34:36.405Z,16.95
2023-02-11T14:37:12.541Z,16.86
2023-02-11T14:39:40.419Z,16.74
2023-02-11T14:42:07.668Z,16.65
2023-02-11T14:44:34.433Z,16.56
2023-02-11T14:47:00.989Z,16.52
2023-02-11T14:49:28.914Z,16.47
2023-02-11T14:52:00.759Z,16.41
2023-02-11T14:54:27.654Z,16.34
2023-02-11T14:57:09.966Z,16.30
2023-02-11T14:59:36.608Z,16.29
2023-02-11T15:02:03.272Z,16.26
2023-02-11T15:04:31.147Z,16.24
2023-02-11T15:06:59.541Z,16.21
2023-02-11T15:09:42.413Z,16.19
2023-02-11T15:12:17.487Z,16.17
2023-02-11T15:14:46.315Z,16.13
2023-02-11T15:17:13.140Z,16.06
2023-02-11T15:19:41.196Z,16.02
2023-02-11T15:22:10.924Z,16.00
2023-02-11T15:24:39.497Z,15.99
2023-02-11T15:27:12.704Z,15.98
2023-02-11T15:29:43.512Z,15.97
2023-02-11T15:32:10.191Z,15.96
2023-02-11T15:34:37.418Z,15.91
2023-02-11T15:37:04.281Z,15.85
2023-02-11T15:39:31.646Z,15.82
2023-02-11T15:42:15.749Z,15.76
2023-02-11T15:44:42.396Z,15.72
2023-02-11T15:47:12.350Z,15.68
2023-02-11T15:49:39.968Z,15.60
2023-02-11T15:52:06.491Z,15.55
2023-02-11T15:54:33.370Z,15.51
2023-02-11T15:57:02.022Z,15.48
2023-02-11T15:59:32.871Z,15.44
2023-02-11T16:02:05.321Z,15.43
2023-02-11T16:04:31.959Z,15.38
2023-02-11T16:06:58.627Z,15.38
2023-02-11T16:09:26.705Z,15.37
2023-02-11T16:11:54.343Z,15.34
2023-02-11T16:14:24.088Z,15.31
2023-02-11T16:16:51.774Z,15.28
2023-02-11T16:19:18.793Z,15.25
2023-02-11T16:21:45.544Z,15.24
2023-02-11T16:24:19.025Z,15.24
2023-02-11T16:26:47.254Z,15.22
2023-02-11T16:29:15.065Z,15.20
2023-02-11T16:31:45.757Z,15.17
2023-02-11T16:34:16.588Z,15.19
2023-02-11T16:36:43.134Z,15.17
2023-02-11T16:39:11.209Z,15.16
2023-02-11T16:41:37.792Z,15.15
2023-02-11T16:44:04.424Z,15.14
2023-02-11T16:46:31.578Z,15.15
2023-02-11T16:48:58.269Z,15.15
2023-02-11T16:51:24.884Z,15.15
2023-02-11T16:53:51.550Z,15.14
2023-02-11T16:56:18.293Z,15.13
2023-02-11T16:58:44.932Z,15.12
2023-02-11T17:01:13.917Z,15.12
2023-02-11T17:03:41.086Z,15.09
2023-02-11T17:06:10.816Z,15.07
2023-02-11T17:08:37.448Z,15.04
2023-02-11T17:11:04.154Z,15.01
2023-02-11T17:13:30.726Z,14.97
2023-02-11T17:15:57.443Z,14.89
2023-02-11T17:18:24.047Z,14.86
2023-02-11T17:20:50.598Z,14.85
2023-02-11T17:23:17.326Z,14.84
2023-02-11T17:25:44.288Z,14.82
2023-02-11T17:28:12.264Z,14.78
2023-02-11T17:30:40.013Z,14.78
2023-02-11T17:33:06.675Z,14.76
2023-02-11T17:35:33.247Z,14.72
2023-02-11T17:38:01.676Z,14.69
2023-02-11T17:40:28.268Z,14.67
2023-02-11T17:42:54.824Z,14.65
2023-02-11T17:45:22.483Z,14.62
2023-02-11T17:47:49.595Z,14.61
2023-02-11T17:50:16.279Z,14.57
2023-02-11T17:52:43.069Z,14.54
2023-02-11T17:55:09.748Z,14.50
2023-02-11T17:57:36.411Z,14.46
2023-02-11T18:00:04.528Z,14.44
2023-02-11T18:02:31.090Z,14.39
2023-02-11T18:04:58.919Z,14.36
2023-02-11T18:07:26.158Z,14.32
2023-02-11T18:09:52.810Z,14.28
2023-02-11T18:12:25.379Z,14.25
2023-02-11T18:14:56.792Z,14.20
2023-02-11T18:17:24.354Z,14.15
2023-02-11T18:19:50.954Z,14.12
2023-02-11T18:22:17.843Z,14.10
2023-02-11T18:24:44.395Z,14.08
2023-02-11T18:27:10.946Z,14.06
2023-02-11T18:29:38.093Z,14.04
2023-02-11T18:32:04.819Z,14.02
2023-02-11T18:34:31.938Z,13.98
2023-02-11T18:36:58.771Z,13.95
2023-02-11T18:39:26.546Z,13.94
2023-02-11T18:41:56.953Z,13.92
2023-02-11T18:44:24.886Z,13.92
2023-02-11T18:46:52.054Z,13.91
2023-02-11T18:49:18.900Z,13.89
2023-02-11T18:51:45.767Z,13.88
2023-02-11T18:54:12.537Z,13.87
2023-02-11T18:56:39.224Z,13.88
2023-02-11T18:59:06.679Z,13.87
2023-02-11T19:01:34.605Z,13.87
2023-02-11T19:04:04.548Z,13.86
2023-02-11T19:06:35.202Z,13.85
2023-02-11T19:09:03.457Z,13.85
2023-02-11T19:11:49.474Z,13.81
2023-02-11T19:14:20.624Z,13.81
2023-02-11T19:16:47.524Z,13.79
2023-02-11T19:19:14.446Z,13.79
2023-02-11T19:21:41.998Z,13.76
2023-02-11T19:24:08.764Z,13.74
2023-02-11T19:26:35.757Z,13.72
2023-02-11T19:29:02.495Z,13.71
2023-02-11T19:31:32.244Z,13.69
2023-02-11T19:33:59.475Z,13.69
2023-02-11T19:36:26.163Z,13.66
2023-02-11T19:38:52.832Z,13.64
2023-02-11T19:41:22.394Z,13.62
2023-02-11T19:43:53.178Z,13.60
2023-02-11T19:46:20.926Z,13.60
2023-02-11T19:48:48.242Z,13.60
2023-02-11T19:51:14.808Z,13.60
2023-02-11T19:53:41.596Z,13.61
2023-02-11T19:56:08.845Z,13.60
2023-02-11T19:58:35.875Z,13.60
2023-02-11T20:01:08.695Z,13.60
2023-02-11T20:03:35.347Z,13.60
2023-02-11T20:06:09.160Z,13.59
2023-02-11T20:08:35.850Z,13.58
2023-02-11T20:11:09.217Z,13.55
2023-02-11T20:13:37.746Z,13.54
2023-02-11T20:16:08.189Z,13.50
2023-02-11T20:18:35.118Z,13.49
2023-02-11T20:21:06.169Z,13.47
2023-02-11T20:23:33.097Z,13.44
2023-02-11T20:25:59.872Z,13.42
2023-02-11T20:28:26.882Z,13.41
2023-02-11T20:30:57.362Z,13.39
2023-02-11T20:33:24.368Z,13.41
2023-02-11T20:35:57.933Z,13.41
2023-02-11T20:38:24.709Z,13.42
2023-02-11T20:40:51.329Z,13.43
2023-02-11T20:43:18.139Z,13.41
2023-02-11T20:45:45.100Z,13.41
2023-02-11T20:48:11.954Z,13.40
2023-02-11T20:50:38.621Z,13.39
2023-02-11T20:53:05.416Z,13.37
2023-02-11T20:55:32.290Z,13.37
2023-02-11T20:57:58.900Z,13.36
2023-02-11T21:00:25.786Z,13.34
2023-02-11T21:02:52.869Z,13.35
2023-02-11T21:05:19.558Z,13.35
2023-02-11T21:07:46.524Z,13.34
2023-02-11T21:10:13.195Z,13.33
2023-02-11T21:12:39.741Z,13.32
2023-02-11T21:15:07.994Z,13.31
2023-02-11T21:17:34.622Z,13.30
2023-02-11T21:20:01.213Z,13.27
2023-02-11T21:22:27.993Z,13.23
2023-02-11T21:24:54.616Z,13.22
2023-02-11T21:27:21.160Z,13.21
2023-02-11T21:29:54.228Z,13.19
2023-02-11T21:32:21.402Z,13.18
2023-02-11T21:34:48.127Z,13.17
2023-02-11T21:37:15.134Z,13.16
2023-02-11T21:39:43.369Z,13.14
2023-02-11T21:42:10.024Z,13.13
2023-02-11T21:44:36.832Z,13.08
2023-02-11T21:47:03.576Z,13.07
2023-02-11T21:49:30.281Z,13.03
2023-02-11T21:51:56.898Z,13.01
2023-02-11T21:54:25.901Z,12.99
2023-02-11T21:56:52.889Z,12.97
2023-02-11T21:59:19.565Z,12.96
2023-02-11T22:01:46.372Z,12.94
2023-02-11T22:04:13.058Z,12.94
2023-02-11T22:06:39.726Z,12.93
2023-02-11T22:09:07.180Z,12.93
2023-02-11T22:11:33.727Z,12.95
2023-02-11T22:14:00.430Z,12.96
2023-02-11T22:16:27.446Z,12.96
2023-02-11T22:18:54.129Z,12.94
2023-02-11T22:21:21.681Z,12.92
2023-02-11T22:23:48.522Z,12.90
2023-02-11T22:26:15.937Z,12.87
2023-02-11T22:28:42.980Z,12.86
2023-02-11T22:31:13.476Z,12.84
2023-02-11T22:33:40.193Z,12.79
2023-02-11T22:36:08.061Z,12.78
2023-02-11T22:38:34.741Z,12.77
2023-02-11T22:41:04.727Z,12.73
2023-02-11T22:43:31.607Z,12.71
2023-02-11T22:46:05.045Z,12.70
2023-02-11T22:48:31.975Z,12.70
2023-02-11T22:51:03.722Z,12.70
2023-02-11T22:53:30.453Z,12.66
2023-02-11T22:55:57.701Z,12.64
2023-02-11T22:58:24.770Z,12.63
2023-02-11T23:00:51.325Z,12.61
2023-02-11T23:03:18.033Z,12.57
2023-02-11T23:05:44.617Z,12.56
2023-02-11T23:08:11.283Z,12.55
2023-02-11T23:10:38.156Z,12.54
2023-02-11T23:13:04.734Z,12.54
2023-02-11T23:15:31.286Z,12.52
2023-02-11T23:17:58.020Z,12.51
2023-02-11T23:20:24.567Z,12.50
2023-02-11T23:22:51.482Z,12.51
2023-02-11T23:25:18.203Z,12.49
2023-02-11T23:27:44.780Z,12.50
2023-02-11T23:30:11.830Z,12.49
2023-02-11T23:32:39.165Z,12.49
2023-02-11T23:35:05.896Z,12.50
2023-02-11T23:37:32.537Z,12.47
2023-02-11T23:39:59.210Z,12.47
2023-02-11T23:42:26.021Z,12.48
2023-02-11T23:44:52.693Z,12.47
2023-02-11T23:47:19.882Z,12.46
2023-02-11T23:49:46.439Z,12.46
2023-02-11T23:52:13.083Z,12.47
2023-02-11T23:54:39.696Z,12.47
2023-02-11T23:57:06.419Z,12.46
2023-02-11T23:59:33.032Z,12.46
